KRIC/RIC METAR and TAF weather

Enter ICAO airport designator
Station Type Date Time Source
KRIC METAR 2020/04/04 11:54 UTC NOAA

KRIC 041154Z 35008KT 10SM FEW070 09/04 A2998 RMK AO2 SLP156 T00890039 10100 20067 53014


Station Type Date Time Source
KRIC Decoded METAR 2020/04/04 11:54 UTC NOAA

RICHMOND INTERNATIONAL AIRPORT, VA, United States (KRIC) 37-31N 077-19W 50M
Apr 04, 2020 - 07:54 AM EDT / 2020.04.04 1154 UTC
Wind: from the N (350 degrees) at 9 MPH (8 KT):0
Visibility: 10 mile(s):0
Sky conditions: mostly clear
Temperature: 48.0 F (8.9 C)
Dew Point: 39.0 F (3.9 C)
Relative Humidity: 70%
Pressure (altimeter): 29.98 in. Hg (1015 hPa)
Pressure tendency: 0.04 inches (1.4 hPa) higher than three hours ago
ob: KRIC 041154Z 35008KT 10SM FEW070 09/04 A2998 RMK AO2 SLP156 T00890039 10100 20067 53014
cycle: 12

Station Type Date Time Source
KRIC TAF 2020/04/04 12:22 UTC NOAA

TAF KRIC 041120Z 0412/0512 36006KT P6SM SKC
FM041400 01009KT P6SM BKN040
FM050000 VRB03KT P6SM SCT050

Example: see airport list